createdAt,value
2019-05-06T00:00:15.481Z,3.57
2019-05-06T00:02:44.346Z,4.30
2019-05-06T00:05:14.415Z,3.47
2019-05-06T00:07:46.542Z,3.87
2019-05-06T00:10:26.661Z,3.60
2019-05-06T00:12:56.320Z,4.90
2019-05-06T00:15:25.492Z,3.30
2019-05-06T00:17:54.559Z,4.10
2019-05-06T00:20:24.404Z,4.60
2019-05-06T00:22:56.745Z,3.80
2019-05-06T00:25:34.881Z,4.63
2019-05-06T00:28:35.215Z,5.03
2019-05-06T00:31:12.675Z,3.97
2019-05-06T00:33:37.134Z,4.97
2019-05-06T00:36:06.105Z,4.30
2019-05-06T00:38:35.801Z,4.20
2019-05-06T00:41:06.826Z,4.73
2019-05-06T00:43:35.745Z,4.80
2019-05-06T00:46:05.087Z,4.57
2019-05-06T00:48:34.269Z,3.97
2019-05-06T00:51:04.495Z,4.30
2019-05-06T00:53:35.524Z,4.97
2019-05-06T00:56:04.676Z,4.92
2019-05-06T00:58:34.803Z,4.10
2019-05-06T01:01:04.777Z,4.90
2019-05-06T01:03:34.706Z,5.17
2019-05-06T01:06:04.077Z,4.70
2019-05-06T01:08:34.908Z,5.10
2019-05-06T01:11:06.188Z,4.43
2019-05-06T01:13:40.786Z,4.80
2019-05-06T01:16:11.297Z,5.20
2019-05-06T01:18:40.187Z,5.00
2019-05-06T01:21:14.324Z,5.10
2019-05-06T01:23:44.172Z,5.07
2019-05-06T01:26:16.117Z,4.20
2019-05-06T01:28:49.089Z,5.13
2019-05-06T01:31:20.805Z,4.67
2019-05-06T01:33:53.524Z,5.57
2019-05-06T01:36:24.693Z,5.03
2019-05-06T01:39:07.062Z,5.27
2019-05-06T01:41:57.196Z,4.13
2019-05-06T01:44:26.196Z,4.30
2019-05-06T01:46:55.078Z,4.83
2019-05-06T01:49:24.520Z,4.37
2019-05-06T01:51:54.591Z,5.43
2019-05-06T01:54:26.417Z,5.10
2019-05-06T01:56:58.652Z,6.10
2019-05-06T01:59:31.187Z,5.10
2019-05-06T02:02:04.338Z,4.83
2019-05-06T02:04:36.104Z,5.00
2019-05-06T02:07:05.059Z,5.20
2019-05-06T02:09:34.438Z,4.90
2019-05-06T02:12:04.701Z,4.80
2019-05-06T02:14:34.273Z,4.97
2019-05-06T02:17:03.760Z,5.80
2019-05-06T02:19:34.757Z,5.20
2019-05-06T02:22:13.627Z,4.93
2019-05-06T02:24:49.470Z,5.17
2019-05-06T02:27:18.690Z,5.03
2019-05-06T02:29:54.329Z,5.27
2019-05-06T02:32:45.246Z,5.30
2019-05-06T02:35:19.222Z,4.93
2019-05-06T02:37:48.204Z,5.37
2019-05-06T02:40:24.627Z,5.80
2019-05-06T02:42:54.808Z,5.53
2019-05-06T02:45:24.446Z,5.47
2019-05-06T02:48:17.787Z,5.08
2019-05-06T02:51:05.534Z,4.87
2019-05-06T02:53:34.371Z,4.77
2019-05-06T02:56:04.379Z,5.30
2019-05-06T02:58:33.650Z,5.17
2019-05-06T03:01:03.693Z,5.83
2019-05-06T03:03:34.233Z,6.40
2019-05-06T03:06:03.955Z,5.73
2019-05-06T03:08:33.536Z,6.00
2019-05-06T03:11:04.033Z,5.33
2019-05-06T03:13:34.393Z,6.00
2019-05-06T03:16:05.928Z,5.50
2019-05-06T03:18:34.080Z,5.67
2019-05-06T03:21:28.263Z,5.70
2019-05-06T03:24:03.954Z,6.00
2019-05-06T03:26:33.782Z,5.23
2019-05-06T03:29:03.087Z,5.63
2019-05-06T03:31:36.375Z,5.83
2019-05-06T03:34:28.378Z,5.43
2019-05-06T03:36:40.355Z,5.90
2019-05-06T03:39:05.896Z,5.83
2019-05-06T03:41:34.999Z,5.70
2019-05-06T03:44:04.161Z,6.33
2019-05-06T03:46:53.934Z,6.43
2019-05-06T03:49:23.793Z,6.03
2019-05-06T03:51:55.941Z,6.27
2019-05-06T03:54:24.855Z,5.63
2019-05-06T03:56:54.848Z,5.40
2019-05-06T03:59:25.581Z,6.50
2019-05-06T04:01:54.349Z,5.65
2019-05-06T04:04:23.456Z,5.43
2019-05-06T04:06:53.737Z,6.30
2019-05-06T04:09:24.060Z,6.17
2019-05-06T04:11:54.252Z,6.03
2019-05-06T04:14:23.974Z,6.53
2019-05-06T04:16:58.704Z,6.50
2019-05-06T04:19:33.313Z,6.03
2019-05-06T04:22:13.665Z,5.87
2019-05-06T04:24:55.874Z,6.63
2019-05-06T04:27:38.983Z,5.67
2019-05-06T04:30:08.073Z,5.73
2019-05-06T04:32:37.053Z,6.17
2019-05-06T04:35:06.417Z,6.37
2019-05-06T04:37:35.504Z,6.57
2019-05-06T04:40:04.798Z,8.07
2019-05-06T04:42:34.613Z,7.50
2019-05-06T04:45:04.993Z,7.27
2019-05-06T04:47:34.045Z,7.00
2019-05-06T04:50:05.004Z,7.30
2019-05-06T04:52:34.436Z,7.00
2019-05-06T04:55:04.058Z,6.87
2019-05-06T04:57:33.703Z,7.50
2019-05-06T05:00:04.328Z,7.30
2019-05-06T05:02:33.944Z,7.83
2019-05-06T05:05:04.402Z,8.40
2019-05-06T05:07:33.694Z,7.60
2019-05-06T05:10:12.631Z,7.17
2019-05-06T05:12:52.565Z,7.80
2019-05-06T05:15:49.655Z,8.60
2019-05-06T05:18:23.112Z,7.65
2019-05-06T05:20:52.875Z,8.20
2019-05-06T05:23:22.887Z,8.27
2019-05-06T05:25:52.223Z,8.27
2019-05-06T05:28:22.306Z,8.07
2019-05-06T05:30:52.183Z,8.50
2019-05-06T05:33:22.492Z,7.73
2019-05-06T05:35:52.565Z,6.87
2019-05-06T05:38:22.719Z,7.17
2019-05-06T05:40:52.794Z,7.40
2019-05-06T05:43:32.525Z,6.70
2019-05-06T05:46:02.926Z,6.10
2019-05-06T05:48:59.450Z,7.00
2019-05-06T05:51:28.611Z,7.67
2019-05-06T05:53:57.610Z,6.80
2019-05-06T05:56:26.667Z,6.07
2019-05-06T05:58:55.766Z,7.50
2019-05-06T06:01:25.963Z,6.67
2019-05-06T06:03:55.234Z,6.93
2019-05-06T06:06:24.310Z,5.90
2019-05-06T06:08:53.323Z,5.53
2019-05-06T06:11:29.745Z,6.40
2019-05-06T06:14:02.995Z,6.63
2019-05-06T06:16:58.158Z,6.43
2019-05-06T06:19:36.725Z,5.90
2019-05-06T06:22:08.548Z,5.63
2019-05-06T06:24:37.729Z,6.00
2019-05-06T06:27:06.742Z,5.53
2019-05-06T06:29:35.715Z,4.87
2019-05-06T06:32:32.710Z,6.23
2019-05-06T06:35:36.211Z,6.30
2019-05-06T06:38:12.313Z,6.43
2019-05-06T06:40:42.541Z,4.60
2019-05-06T06:43:16.577Z,5.07
2019-05-06T06:45:45.544Z,5.43
2019-05-06T06:48:14.540Z,4.60
2019-05-06T06:50:43.612Z,4.77
2019-05-06T06:53:12.609Z,4.50
2019-05-06T06:55:42.779Z,4.40
2019-05-06T06:58:24.228Z,4.05
2019-05-06T07:01:12.348Z,3.70
2019-05-06T07:03:46.156Z,4.50
2019-05-06T07:06:33.695Z,3.67
2019-05-06T07:09:03.742Z,3.40
2019-05-06T07:11:33.125Z,3.80
2019-05-06T07:14:02.701Z,4.60
2019-05-06T07:16:32.786Z,4.67
2019-05-06T07:19:03.082Z,4.07
2019-05-06T07:21:46.549Z,4.30
2019-05-06T07:24:15.654Z,4.70
2019-05-06T07:26:49.073Z,4.67
2019-05-06T07:29:23.429Z,4.60
2019-05-06T07:31:48.936Z,4.63
2019-05-06T07:34:17.996Z,4.20
2019-05-06T07:36:46.926Z,4.97
2019-05-06T07:39:16.243Z,4.33
2019-05-06T07:41:53.510Z,4.23
2019-05-06T07:44:42.351Z,3.37
2019-05-06T07:47:39.573Z,3.80
2019-05-06T07:50:09.792Z,4.10
2019-05-06T07:52:38.864Z,3.60
2019-05-06T07:55:07.990Z,3.77
2019-05-06T07:57:36.992Z,3.50
2019-05-06T08:00:07.385Z,2.93
2019-05-06T08:02:36.213Z,2.57
2019-05-06T08:05:07.647Z,2.47
2019-05-06T08:07:36.692Z,3.47
2019-05-06T08:10:06.472Z,3.57
2019-05-06T08:12:35.513Z,2.80
2019-05-06T08:15:06.060Z,2.90
2019-05-06T08:17:39.233Z,2.70
2019-05-06T08:20:09.679Z,4.33
2019-05-06T08:22:56.752Z,3.73
2019-05-06T08:25:25.904Z,3.77
2019-05-06T08:27:54.883Z,3.90
2019-05-06T08:30:23.922Z,4.53
2019-05-06T08:32:53.043Z,3.17
2019-05-06T08:35:22.763Z,4.40
2019-05-06T08:37:53.097Z,4.27
2019-05-06T08:40:23.683Z,4.77
2019-05-06T08:42:53.296Z,5.03
2019-05-06T08:45:22.286Z,4.53
2019-05-06T08:47:52.377Z,4.60
2019-05-06T08:50:49.580Z,3.37
2019-05-06T08:53:32.941Z,3.20
2019-05-06T08:56:02.543Z,3.07
2019-05-06T08:58:47.813Z,3.17
2019-05-06T09:01:29.609Z,3.85
2019-05-06T09:04:08.831Z,3.13
2019-05-06T09:06:31.578Z,2.40
2019-05-06T09:09:02.186Z,2.43
2019-05-06T09:11:32.213Z,2.73
2019-05-06T09:14:03.387Z,3.87
2019-05-06T09:16:33.114Z,3.43
2019-05-06T09:19:04.432Z,3.10
2019-05-06T09:21:33.551Z,3.30
2019-05-06T09:24:02.938Z,2.73
2019-05-06T09:26:45.876Z,2.63
2019-05-06T09:29:19.514Z,4.20
2019-05-06T09:31:52.225Z,2.50
2019-05-06T09:34:33.753Z,2.70
2019-05-06T09:37:15.516Z,2.87
2019-05-06T09:39:50.096Z,2.10
2019-05-06T09:42:19.090Z,2.67
2019-05-06T09:44:50.635Z,2.43
2019-05-06T09:47:29.433Z,3.00
2019-05-06T09:49:58.459Z,3.23
2019-05-06T09:52:27.353Z,3.60
2019-05-06T09:55:12.974Z,3.97
2019-05-06T09:58:16.365Z,3.47
2019-05-06T10:00:48.368Z,2.00
2019-05-06T10:03:17.438Z,2.23
2019-05-06T10:05:46.454Z,2.23
2019-05-06T10:08:15.461Z,2.53
2019-05-06T10:10:56.114Z,1.90
2019-05-06T10:13:15.639Z,2.00
2019-05-06T10:15:46.875Z,2.53
2019-05-06T10:18:16.022Z,2.00
2019-05-06T10:20:46.931Z,2.50
2019-05-06T10:23:16.027Z,2.58
2019-05-06T10:25:45.274Z,2.17
2019-05-06T10:28:46.199Z,2.80
2019-05-06T10:31:16.941Z,2.17
2019-05-06T10:34:03.642Z,2.23
2019-05-06T10:36:42.739Z,2.07
2019-05-06T10:39:13.920Z,2.63
2019-05-06T10:41:46.366Z,1.80
2019-05-06T10:44:34.088Z,1.70
2019-05-06T10:47:03.099Z,1.27
2019-05-06T10:49:33.714Z,1.63
2019-05-06T10:52:10.197Z,2.13
2019-05-06T10:54:39.048Z,1.60
2019-05-06T10:57:32.931Z,1.80
2019-05-06T11:00:01.785Z,2.10
2019-05-06T11:02:48.988Z,2.58
2019-05-06T11:05:18.278Z,2.67
2019-05-06T11:07:47.148Z,1.57
2019-05-06T11:10:23.939Z,1.87
2019-05-06T11:12:47.076Z,2.13
2019-05-06T11:15:16.219Z,1.70
2019-05-06T11:17:45.026Z,2.30
2019-05-06T11:20:14.235Z,2.70
2019-05-06T11:22:43.689Z,2.13
2019-05-06T11:25:13.044Z,2.43
2019-05-06T11:27:45.098Z,2.07
2019-05-06T11:30:29.006Z,2.20
2019-05-06T11:33:04.815Z,2.13
2019-05-06T11:36:08.310Z,2.27
2019-05-06T11:38:37.178Z,2.00
2019-05-06T11:41:06.273Z,1.80
2019-05-06T11:43:35.287Z,2.07
2019-05-06T11:46:04.301Z,1.77
2019-05-06T11:48:33.088Z,1.87
2019-05-06T11:51:03.773Z,1.93
2019-05-06T11:53:32.762Z,2.40
2019-05-06T11:56:02.222Z,2.00
2019-05-06T11:58:48.025Z,2.27
2019-05-06T12:01:20.977Z,2.17
2019-05-06T12:03:52.040Z,2.40
2019-05-06T12:06:22.609Z,2.00
2019-05-06T12:08:52.461Z,2.23
2019-05-06T12:11:23.751Z,1.90
2019-05-06T12:13:53.215Z,2.00
2019-05-06T12:16:26.039Z,1.70
2019-05-06T12:18:53.152Z,1.70
2019-05-06T12:21:23.200Z,2.00
2019-05-06T12:23:54.051Z,2.27
2019-05-06T12:26:22.981Z,2.23
2019-05-06T12:28:53.178Z,2.17
2019-05-06T12:31:23.347Z,1.80
2019-05-06T12:33:53.313Z,2.27
2019-05-06T12:36:23.686Z,1.80
2019-05-06T12:39:15.715Z,2.43
2019-05-06T12:41:53.263Z,2.90
2019-05-06T12:44:23.054Z,2.30
2019-05-06T12:47:03.395Z,1.90
2019-05-06T12:49:32.760Z,2.00
2019-05-06T12:52:01.734Z,1.97
2019-05-06T12:54:33.260Z,1.63
2019-05-06T12:57:03.260Z,2.47
2019-05-06T12:59:32.574Z,2.13
2019-05-06T13:02:02.746Z,1.77
2019-05-06T13:04:49.629Z,2.00
2019-05-06T13:07:03.143Z,1.80
2019-05-06T13:09:33.194Z,1.30
2019-05-06T13:12:03.792Z,1.53
2019-05-06T13:14:33.281Z,1.73
2019-05-06T13:17:02.855Z,1.37
2019-05-06T13:19:32.344Z,1.60
2019-05-06T13:22:03.743Z,1.60
2019-05-06T13:24:32.569Z,1.20
2019-05-06T13:27:02.575Z,1.50
2019-05-06T13:29:35.661Z,1.50
2019-05-06T13:32:04.138Z,1.70
2019-05-06T13:34:33.503Z,1.97
2019-05-06T13:37:02.641Z,1.63
2019-05-06T13:39:32.816Z,2.23
2019-05-06T13:42:02.012Z,1.80
2019-05-06T13:44:32.031Z,1.93
2019-05-06T13:47:02.962Z,2.03
2019-05-06T13:49:47.457Z,1.37
2019-05-06T13:52:19.172Z,2.13
2019-05-06T13:54:48.071Z,2.00
2019-05-06T13:57:17.020Z,1.93
2019-05-06T13:59:45.917Z,1.70
2019-05-06T14:02:34.277Z,1.80
2019-05-06T14:05:03.257Z,1.40
2019-05-06T14:07:34.458Z,1.37
2019-05-06T14:10:02.976Z,1.67
2019-05-06T14:12:33.138Z,1.90
2019-05-06T14:15:04.330Z,1.97
2019-05-06T14:17:33.002Z,1.63
2019-05-06T14:20:02.626Z,2.53
2019-05-06T14:22:32.614Z,2.33
2019-05-06T14:25:36.224Z,1.87
2019-05-06T14:28:12.427Z,2.07
2019-05-06T14:31:15.510Z,2.07
2019-05-06T14:33:44.503Z,1.90
2019-05-06T14:36:13.380Z,2.03
2019-05-06T14:38:43.072Z,1.73
2019-05-06T14:41:18.425Z,2.10
2019-05-06T14:43:47.419Z,2.23
2019-05-06T14:46:16.511Z,2.27
2019-05-06T14:48:45.583Z,1.80
2019-05-06T14:51:14.926Z,1.90
2019-05-06T14:53:44.034Z,2.27
2019-05-06T14:56:27.789Z,1.70
2019-05-06T14:59:06.702Z,2.20
2019-05-06T15:01:37.716Z,2.30
2019-05-06T15:04:06.755Z,2.87
2019-05-06T15:06:35.902Z,2.30
2019-05-06T15:09:07.517Z,2.50
2019-05-06T15:11:36.499Z,2.47
2019-05-06T15:14:05.891Z,2.40
2019-05-06T15:16:34.678Z,2.63
2019-05-06T15:19:04.992Z,2.87
2019-05-06T15:21:38.557Z,2.93
2019-05-06T15:24:05.313Z,2.60
2019-05-06T15:26:34.268Z,2.37
2019-05-06T15:29:03.578Z,3.10
2019-05-06T15:31:54.174Z,4.23
2019-05-06T15:34:29.956Z,2.87
2019-05-06T15:37:13.039Z,3.77
2019-05-06T15:39:43.781Z,2.80
2019-05-06T15:42:13.069Z,2.63
2019-05-06T15:44:42.649Z,3.30
2019-05-06T15:47:13.211Z,3.20
2019-05-06T15:49:42.328Z,3.47
2019-05-06T15:52:12.512Z,3.30
2019-05-06T15:54:43.029Z,3.03
2019-05-06T15:57:12.154Z,3.30
2019-05-06T15:59:44.408Z,3.13
2019-05-06T16:02:12.173Z,3.37
2019-05-06T16:04:42.963Z,3.80
2019-05-06T16:07:12.655Z,3.50
2019-05-06T16:09:42.834Z,2.53
2019-05-06T16:12:12.766Z,4.62
2019-05-06T16:14:42.503Z,3.50
2019-05-06T16:17:12.375Z,3.63
2019-05-06T16:19:42.724Z,3.57
2019-05-06T16:22:11.868Z,2.97
2019-05-06T16:24:45.768Z,3.43
2019-05-06T16:27:14.547Z,3.20
2019-05-06T16:29:43.541Z,4.30
2019-05-06T16:32:12.448Z,2.80
2019-05-06T16:34:43.061Z,4.10
2019-05-06T16:37:12.681Z,3.67
2019-05-06T16:39:41.715Z,4.13
2019-05-06T16:42:12.984Z,6.47
2019-05-06T16:44:45.168Z,8.40
2019-05-06T16:47:15.703Z,4.60
2019-05-06T16:49:44.647Z,4.53
2019-05-06T16:52:13.562Z,3.80
2019-05-06T16:54:42.636Z,3.67
2019-05-06T16:57:20.405Z,2.83
2019-05-06T16:59:49.300Z,4.30
2019-05-06T17:02:26.686Z,4.23
2019-05-06T17:05:15.064Z,4.67
2019-05-06T17:07:45.129Z,4.87
2019-05-06T17:10:14.738Z,4.27
2019-05-06T17:12:43.682Z,4.33
2019-05-06T17:15:12.654Z,4.53
2019-05-06T17:17:46.677Z,4.27
2019-05-06T17:20:12.615Z,4.67
2019-05-06T17:22:42.351Z,4.03
2019-05-06T17:25:11.680Z,4.30
2019-05-06T17:27:43.403Z,4.17
2019-05-06T17:30:33.587Z,4.67
2019-05-06T17:33:22.430Z,4.50
2019-05-06T17:35:52.159Z,4.37
2019-05-06T17:38:25.508Z,4.93
2019-05-06T17:40:54.710Z,5.00
2019-05-06T17:43:23.652Z,5.90
2019-05-06T17:46:02.586Z,5.05
2019-05-06T17:48:42.239Z,4.73
2019-05-06T17:51:23.509Z,4.87
2019-05-06T17:53:53.667Z,4.70
2019-05-06T17:56:22.613Z,5.73
2019-05-06T17:58:53.235Z,5.00
2019-05-06T18:01:27.422Z,4.93
2019-05-06T18:03:56.394Z,5.27
2019-05-06T18:06:25.393Z,5.17
2019-05-06T18:08:54.299Z,5.27
2019-05-06T18:11:23.246Z,5.90
2019-05-06T18:13:52.263Z,5.20
2019-05-06T18:16:22.259Z,5.20
2019-05-06T18:18:52.285Z,5.17
2019-05-06T18:21:22.986Z,5.30
2019-05-06T18:23:52.379Z,5.60
2019-05-06T18:26:22.949Z,5.00
2019-05-06T18:28:52.698Z,5.63
2019-05-06T18:31:22.198Z,5.10
2019-05-06T18:33:52.784Z,5.30
2019-05-06T18:36:22.678Z,4.87
2019-05-06T18:38:52.584Z,5.33
2019-05-06T18:41:23.563Z,5.37
2019-05-06T18:43:53.647Z,5.03
2019-05-06T18:46:22.979Z,5.63
2019-05-06T18:48:52.553Z,5.67
2019-05-06T18:51:22.407Z,6.03
2019-05-06T18:53:52.476Z,5.73
2019-05-06T18:56:22.446Z,5.80
2019-05-06T18:58:53.067Z,4.40
2019-05-06T19:01:23.190Z,5.00
2019-05-06T19:04:12.863Z,5.33
2019-05-06T19:06:42.447Z,4.80
2019-05-06T19:09:32.580Z,5.67
2019-05-06T19:12:03.539Z,5.80
2019-05-06T19:14:32.986Z,6.57
2019-05-06T19:17:02.800Z,5.20
2019-05-06T19:19:34.130Z,7.03
2019-05-06T19:22:03.207Z,6.07
2019-05-06T19:24:33.711Z,6.80
2019-05-06T19:27:03.135Z,9.27
2019-05-06T19:29:32.791Z,7.37
2019-05-06T19:32:02.971Z,8.70
2019-05-06T19:34:34.932Z,6.97
2019-05-06T19:37:03.144Z,6.70
2019-05-06T19:39:33.005Z,6.10
2019-05-06T19:42:02.881Z,5.77
2019-05-06T19:44:32.888Z,6.07
2019-05-06T19:47:02.520Z,6.17
2019-05-06T19:49:32.772Z,6.47
2019-05-06T19:52:03.126Z,7.00
2019-05-06T19:54:33.155Z,6.87
2019-05-06T19:57:02.646Z,7.33
2019-05-06T19:59:33.133Z,9.23
2019-05-06T20:02:02.416Z,6.77
2019-05-06T20:04:33.217Z,6.77
2019-05-06T20:07:26.909Z,6.80
2019-05-06T20:10:12.501Z,6.63
2019-05-06T20:12:58.306Z,5.57
2019-05-06T20:15:42.688Z,6.23
2019-05-06T20:18:11.417Z,9.00
2019-05-06T20:20:42.396Z,6.53
2019-05-06T20:23:12.589Z,7.53
2019-05-06T20:25:42.590Z,5.97
2019-05-06T20:28:13.117Z,7.33
2019-05-06T20:30:42.453Z,9.57
2019-05-06T20:33:12.486Z,7.13
2019-05-06T20:35:43.250Z,6.90
2019-05-06T20:38:12.492Z,7.20
2019-05-06T20:40:43.093Z,7.30
2019-05-06T20:43:20.064Z,6.47
2019-05-06T20:45:42.960Z,7.00
2019-05-06T20:48:12.908Z,7.87
2019-05-06T20:50:42.875Z,6.80
2019-05-06T20:53:12.263Z,6.97
2019-05-06T20:55:43.387Z,7.87
2019-05-06T20:58:12.320Z,5.97
2019-05-06T21:00:42.914Z,6.07
2019-05-06T21:03:12.450Z,6.83
2019-05-06T21:05:43.431Z,7.43
2019-05-06T21:08:12.978Z,8.30
2019-05-06T21:10:42.608Z,8.23
2019-05-06T21:13:13.270Z,7.77
2019-05-06T21:15:43.549Z,10.03
2019-05-06T21:18:12.448Z,8.40
2019-05-06T21:20:43.528Z,8.13
2019-05-06T21:23:12.154Z,7.20
2019-05-06T21:25:43.136Z,7.77
2019-05-06T21:28:12.259Z,7.73
2019-05-06T21:30:42.868Z,7.80
2019-05-06T21:33:12.507Z,7.97
2019-05-06T21:35:42.396Z,7.37
2019-05-06T21:38:12.105Z,7.30
2019-05-06T21:40:43.407Z,9.10
2019-05-06T21:43:13.077Z,6.90
2019-05-06T21:45:42.503Z,6.17
2019-05-06T21:48:13.600Z,6.17
2019-05-06T21:50:42.781Z,6.53
2019-05-06T21:53:14.339Z,6.03
2019-05-06T21:55:42.864Z,5.00
2019-05-06T21:58:14.018Z,5.83
2019-05-06T22:00:49.359Z,5.83
2019-05-06T22:03:22.957Z,5.50
2019-05-06T22:05:54.972Z,5.97
2019-05-06T22:08:24.064Z,5.60
2019-05-06T22:10:53.249Z,5.80
2019-05-06T22:13:24.878Z,5.30
2019-05-06T22:15:54.070Z,6.03
2019-05-06T22:18:23.026Z,5.60
2019-05-06T22:21:26.254Z,5.87
2019-05-06T22:24:06.256Z,5.97
2019-05-06T22:26:36.030Z,5.53
2019-05-06T22:29:07.345Z,6.07
2019-05-06T22:31:38.832Z,5.90
2019-05-06T22:34:07.740Z,5.97
2019-05-06T22:36:36.836Z,6.47
2019-05-06T22:39:06.789Z,6.00
2019-05-06T22:41:37.259Z,6.13
2019-05-06T22:44:13.839Z,6.53
2019-05-06T22:46:36.711Z,5.90
2019-05-06T22:49:05.476Z,6.27
2019-05-06T22:51:34.471Z,5.87
2019-05-06T22:54:03.615Z,6.00
2019-05-06T22:56:32.779Z,5.73
2019-05-06T22:59:04.482Z,5.90
2019-05-06T23:01:47.980Z,6.30
2019-05-06T23:04:17.562Z,5.77
2019-05-06T23:06:46.523Z,5.87
2019-05-06T23:09:15.413Z,5.77
2019-05-06T23:11:44.455Z,6.13
2019-05-06T23:14:27.652Z,5.87
2019-05-06T23:16:44.110Z,6.23
2019-05-06T23:19:12.972Z,5.97
2019-05-06T23:21:43.048Z,6.10
2019-05-06T23:24:13.111Z,7.97
2019-05-06T23:26:42.187Z,8.97
2019-05-06T23:29:12.968Z,7.22
2019-05-06T23:31:42.453Z,7.40
2019-05-06T23:34:12.537Z,6.40
2019-05-06T23:37:28.180Z,7.83
2019-05-06T23:40:38.883Z,7.37
2019-05-06T23:43:43.954Z,7.13
2019-05-06T23:46:49.376Z,7.00
2019-05-06T23:49:54.686Z,6.37
2019-05-06T23:52:59.458Z,7.17
2019-05-06T23:56:04.532Z,6.03
2019-05-06T23:58:33.578Z,7.00
